AAA962 YPAD-YBCS
Flight info
| Callsign | AAA962 |
|---|---|
| Flight time | N/A |
| Altitude | 35000 |
| Route | AD H246 OOM DCT NONET DCT SARIK DCT ONARA J64 CS |
| Aircraft | A320/M-SDE3FGHIRWY/LB1 |
Departure
| Time | 2026-04-27 08:20 |
|---|---|
| Airport | Adelaide International Airport (YPAD) |
Arrival
| Time | N/A |
|---|---|
| Airport | Cairns International Airport (YBCS) |
| Time | Latitude | Longitude | Altitude | Speed | Heading |
|---|---|---|---|---|---|
| 2026-04-27 07:53 | -34.93829 | 138.53992 | 30 ft | 0 kts | 320° |
| 2026-04-27 08:01 | -34.93838 | 138.54001 | 30 ft | 4 kts | 321° |
| 2026-04-27 08:01 | -34.93860 | 138.54021 | 27 ft | 4 kts | 328° |
| 2026-04-27 08:01 | -34.93884 | 138.54036 | 29 ft | 4 kts | 345° |
| 2026-04-27 08:01 | -34.93906 | 138.54036 | 30 ft | 3 kts | 42° |
| 2026-04-27 08:02 | -34.93909 | 138.54033 | 30 ft | 0 kts | 50° |
| 2026-04-27 08:18 | -34.93906 | 138.54038 | 27 ft | 2 kts | 50° |
| 2026-04-27 08:18 | -34.93886 | 138.54099 | 28 ft | 14 kts | 88° |
| 2026-04-27 08:18 | -34.93955 | 138.54194 | 27 ft | 16 kts | 134° |
| 2026-04-27 08:18 | -34.93965 | 138.54205 | 27 ft | 0 kts | 134° |
| 2026-04-27 08:19 | -34.93966 | 138.54207 | 27 ft | 2 kts | 134° |
| 2026-04-27 08:19 | -34.94028 | 138.54262 | 31 ft | 16 kts | 161° |
| 2026-04-27 08:20 | -34.94137 | 138.54215 | 27 ft | 20 kts | 233° |
| 2026-04-27 08:20 | -34.94349 | 138.53914 | 26 ft | 101 kts | 230° |
| 2026-04-27 08:20 | -34.95047 | 138.52942 | 234 ft | 184 kts | 227° |
| 2026-04-27 08:20 | -34.95914 | 138.51737 | 1528 ft | 193 kts | 227° |
| 2026-04-27 08:21 | -34.96825 | 138.50415 | 2750 ft | 216 kts | 227° |
| 2026-04-27 08:21 | -34.97750 | 138.48858 | 3890 ft | 241 kts | 246° |
| 2026-04-27 08:21 | -34.98096 | 138.46796 | 4772 ft | 259 kts | 276° |
| 2026-04-27 08:21 | -34.97882 | 138.45358 | 5556 ft | 261 kts | 290° |
| 2026-04-27 08:22 | -34.97020 | 138.43441 | 6932 ft | 258 kts | 313° |
| 2026-04-27 08:22 | -34.95585 | 138.42115 | 8118 ft | 265 kts | 336° |
| 2026-04-27 08:22 | -34.93119 | 138.41780 | 9583 ft | 278 kts | 13° |
| 2026-04-27 08:22 | -34.91882 | 138.42239 | 10266 ft | 286 kts | 21° |
| 2026-04-27 08:23 | -34.89924 | 138.43077 | 10895 ft | 311 kts | 21° |
| 2026-04-27 08:23 | -34.87801 | 138.43984 | 11464 ft | 336 kts | 20° |
| 2026-04-27 08:23 | -34.85543 | 138.44938 | 12240 ft | 349 kts | 20° |
| 2026-04-27 08:23 | -34.83214 | 138.45912 | 13212 ft | 357 kts | 19° |
| 2026-04-27 08:24 | -34.80839 | 138.46899 | 14156 ft | 364 kts | 19° |
| 2026-04-27 08:24 | -34.78420 | 138.47901 | 15010 ft | 371 kts | 19° |
| 2026-04-27 08:24 | -34.78405 | 138.47907 | 15016 ft | 371 kts | 19° |
| 2026-04-27 08:25 | -34.77059 | 138.48464 | 15501 ft | 373 kts | 19° |
| 2026-04-27 08:25 | -34.74582 | 138.49490 | 16362 ft | 379 kts | 19° |
| 2026-04-27 08:25 | -34.72072 | 138.50532 | 17236 ft | 384 kts | 19° |
| 2026-04-27 08:25 | -34.69525 | 138.51590 | 18100 ft | 389 kts | 19° |
| 2026-04-27 08:26 | -34.66933 | 138.52663 | 18899 ft | 395 kts | 19° |
| 2026-04-27 08:26 | -34.64310 | 138.53748 | 19616 ft | 401 kts | 19° |
| 2026-04-27 08:26 | -34.61654 | 138.54846 | 20340 ft | 407 kts | 19° |
| 2026-04-27 08:26 | -34.58962 | 138.55957 | 21089 ft | 412 kts | 19° |
| 2026-04-27 08:27 | -34.56228 | 138.57083 | 21839 ft | 417 kts | 19° |
| 2026-04-27 08:27 | -34.53464 | 138.58221 | 22566 ft | 422 kts | 19° |
| 2026-04-27 08:27 | -34.50637 | 138.59385 | 23271 ft | 428 kts | 19° |
| 2026-04-27 08:27 | -34.47800 | 138.60549 | 23920 ft | 433 kts | 19° |
| 2026-04-27 08:28 | -34.44886 | 138.61744 | 24475 ft | 438 kts | 18° |
| 2026-04-27 08:28 | -34.41989 | 138.62932 | 25023 ft | 442 kts | 18° |
| 2026-04-27 08:28 | -34.39061 | 138.64133 | 25549 ft | 446 kts | 18° |
| 2026-04-27 08:28 | -34.36110 | 138.65342 | 26079 ft | 450 kts | 18° |
| 2026-04-27 08:29 | -34.33126 | 138.66566 | 26583 ft | 454 kts | 18° |
| 2026-04-27 08:29 | -34.30160 | 138.67783 | 27082 ft | 458 kts | 18° |
| 2026-04-27 08:29 | -34.27126 | 138.69027 | 27575 ft | 462 kts | 18° |
| 2026-04-27 08:29 | -34.24030 | 138.70294 | 28060 ft | 466 kts | 18° |
| 2026-04-27 08:30 | -34.20983 | 138.71538 | 28515 ft | 470 kts | 18° |
| 2026-04-27 08:30 | -34.17821 | 138.72581 | 28961 ft | 473 kts | 11° |
| 2026-04-27 08:30 | -34.14595 | 138.73417 | 29401 ft | 476 kts | 11° |
| 2026-04-27 08:30 | -34.11342 | 138.74257 | 29828 ft | 480 kts | 11° |
| 2026-04-27 08:31 | -34.08059 | 138.75101 | 30229 ft | 483 kts | 11° |
| 2026-04-27 08:31 | -34.04764 | 138.75947 | 30577 ft | 486 kts | 11° |
| 2026-04-27 08:31 | -34.01442 | 138.76802 | 30894 ft | 488 kts | 11° |
| 2026-04-27 08:31 | -33.98110 | 138.77662 | 31198 ft | 490 kts | 11° |
| 2026-04-27 08:32 | -33.94768 | 138.78525 | 31546 ft | 490 kts | 11° |
| 2026-04-27 08:32 | -33.91439 | 138.79386 | 31956 ft | 489 kts | 11° |
| 2026-04-27 08:32 | -33.88110 | 138.80249 | 32367 ft | 488 kts | 11° |
| 2026-04-27 08:32 | -33.84791 | 138.81109 | 32788 ft | 487 kts | 10° |
| 2026-04-27 08:33 | -33.81473 | 138.81964 | 33217 ft | 486 kts | 10° |
| 2026-04-27 08:33 | -33.78208 | 138.82805 | 33630 ft | 486 kts | 10° |
| 2026-04-27 08:33 | -33.74908 | 138.83655 | 34069 ft | 485 kts | 10° |
| 2026-04-27 08:33 | -33.71612 | 138.84504 | 34474 ft | 484 kts | 10° |
| 2026-04-27 08:34 | -33.68311 | 138.85352 | 34865 ft | 483 kts | 10° |
| 2026-04-27 08:34 | -33.65024 | 138.86191 | 35158 ft | 483 kts | 10° |
| 2026-04-27 08:34 | -33.58477 | 138.87856 | 35245 ft | 479 kts | 10° |
| 2026-04-27 08:35 | -33.51961 | 138.89509 | 35244 ft | 478 kts | 10° |
| 2026-04-27 08:35 | -33.45455 | 138.91168 | 35245 ft | 478 kts | 10° |
| 2026-04-27 08:36 | -33.38951 | 138.92824 | 35245 ft | 478 kts | 10° |
| 2026-04-27 08:36 | -33.32448 | 138.94483 | 35238 ft | 478 kts | 10° |
| 2026-04-27 08:37 | -33.25951 | 138.96132 | 35237 ft | 477 kts | 10° |
| 2026-04-27 08:37 | -33.19455 | 138.97771 | 35233 ft | 477 kts | 10° |
| 2026-04-27 08:38 | -33.12963 | 138.99426 | 35226 ft | 477 kts | 10° |
| 2026-04-27 08:38 | -33.06515 | 139.01066 | 35231 ft | 477 kts | 10° |
| 2026-04-27 08:39 | -33.00024 | 139.02689 | 35229 ft | 477 kts | 10° |
| 2026-04-27 08:39 | -32.93527 | 139.04316 | 35226 ft | 477 kts | 10° |
| 2026-04-27 08:40 | -32.87039 | 139.05946 | 35225 ft | 477 kts | 10° |
| 2026-04-27 08:40 | -32.80549 | 139.07582 | 35219 ft | 477 kts | 10° |
| 2026-04-27 08:41 | -32.74061 | 139.09216 | 35230 ft | 477 kts | 10° |
| 2026-04-27 08:41 | -32.67564 | 139.10846 | 35220 ft | 477 kts | 10° |
| 2026-04-27 08:42 | -32.61064 | 139.12470 | 35213 ft | 477 kts | 10° |
| 2026-04-27 08:42 | -32.54567 | 139.14088 | 35210 ft | 477 kts | 10° |
| 2026-04-27 08:43 | -32.48051 | 139.15715 | 35207 ft | 478 kts | 10° |
| 2026-04-27 08:43 | -32.41539 | 139.17335 | 35208 ft | 478 kts | 10° |
| 2026-04-27 08:44 | -32.35027 | 139.18949 | 35208 ft | 478 kts | 10° |
| 2026-04-27 08:44 | -32.28523 | 139.20561 | 35210 ft | 478 kts | 10° |
| 2026-04-27 08:45 | -32.22051 | 139.22163 | 35209 ft | 478 kts | 10° |
| 2026-04-27 08:45 | -32.15543 | 139.23777 | 35211 ft | 478 kts | 10° |
| 2026-04-27 08:46 | -32.09032 | 139.25392 | 35209 ft | 478 kts | 10° |
| 2026-04-27 08:46 | -32.02524 | 139.26996 | 35204 ft | 478 kts | 10° |
| 2026-04-27 08:47 | -31.96003 | 139.28602 | 35201 ft | 478 kts | 10° |
| 2026-04-27 08:47 | -31.89487 | 139.30199 | 35199 ft | 478 kts | 10° |
| 2026-04-27 08:48 | -31.82971 | 139.31801 | 35203 ft | 478 kts | 10° |
| 2026-04-27 08:48 | -31.76450 | 139.33412 | 35204 ft | 478 kts | 10° |
| 2026-04-27 08:49 | -31.69973 | 139.34996 | 35200 ft | 478 kts | 10° |
| 2026-04-27 08:49 | -31.63461 | 139.36587 | 35200 ft | 478 kts | 10° |
| 2026-04-27 08:50 | -31.56948 | 139.38181 | 35199 ft | 478 kts | 10° |
| 2026-04-27 08:50 | -31.50433 | 139.39772 | 35198 ft | 478 kts | 10° |
| 2026-04-27 08:51 | -31.43899 | 139.41359 | 35197 ft | 478 kts | 10° |
| 2026-04-27 08:51 | -31.37379 | 139.42954 | 35199 ft | 478 kts | 10° |
| 2026-04-27 08:52 | -31.30858 | 139.44545 | 35199 ft | 478 kts | 10° |
| 2026-04-27 08:52 | -31.24384 | 139.46113 | 35192 ft | 478 kts | 10° |
| 2026-04-27 08:53 | -31.17862 | 139.47689 | 35195 ft | 478 kts | 10° |
| 2026-04-27 08:53 | -31.11345 | 139.49272 | 35197 ft | 478 kts | 10° |
| 2026-04-27 08:54 | -31.04817 | 139.50857 | 35198 ft | 478 kts | 10° |
| 2026-04-27 08:54 | -30.98289 | 139.52427 | 35199 ft | 478 kts | 10° |
| 2026-04-27 08:55 | -30.91764 | 139.53995 | 35200 ft | 479 kts | 10° |
| 2026-04-27 08:55 | -30.85279 | 139.55563 | 35193 ft | 479 kts | 10° |
| 2026-04-27 08:56 | -30.78748 | 139.57126 | 35193 ft | 479 kts | 10° |
| 2026-04-27 08:56 | -30.72208 | 139.58694 | 35193 ft | 479 kts | 10° |
| 2026-04-27 08:57 | -30.62407 | 139.61051 | 35191 ft | 479 kts | 10° |
| 2026-04-27 08:58 | -30.55873 | 139.62613 | 35188 ft | 479 kts | 10° |
| 2026-04-27 08:58 | -30.49335 | 139.64168 | 35186 ft | 480 kts | 10° |
| 2026-04-27 08:59 | -30.42792 | 139.65730 | 35189 ft | 479 kts | 10° |
| 2026-04-27 08:59 | -30.36254 | 139.67280 | 35189 ft | 479 kts | 10° |
| 2026-04-27 09:00 | -30.29718 | 139.68840 | 35193 ft | 480 kts | 10° |
| 2026-04-27 09:00 | -30.23212 | 139.70398 | 35189 ft | 480 kts | 10° |
| 2026-04-27 09:01 | -30.16666 | 139.71946 | 35187 ft | 480 kts | 10° |
| 2026-04-27 09:01 | -30.10124 | 139.73493 | 35185 ft | 480 kts | 10° |
| 2026-04-27 09:02 | -30.03570 | 139.75051 | 35197 ft | 480 kts | 10° |
| 2026-04-27 09:02 | -29.97028 | 139.76614 | 35185 ft | 480 kts | 10° |
| 2026-04-27 09:03 | -29.90484 | 139.78159 | 35178 ft | 480 kts | 10° |
| 2026-04-27 09:03 | -29.83929 | 139.79698 | 35171 ft | 480 kts | 10° |
| 2026-04-27 09:04 | -29.77378 | 139.81233 | 35169 ft | 480 kts | 10° |
| 2026-04-27 09:04 | -29.70867 | 139.82760 | 35169 ft | 480 kts | 10° |
| 2026-04-27 09:05 | -29.64324 | 139.84298 | 35161 ft | 480 kts | 10° |
| 2026-04-27 09:05 | -29.57779 | 139.85832 | 35153 ft | 480 kts | 10° |
| 2026-04-27 09:06 | -29.51231 | 139.87370 | 35153 ft | 480 kts | 10° |
| 2026-04-27 09:06 | -29.45793 | 139.88652 | 35151 ft | 480 kts | 10° |
| 2026-04-27 09:07 | -29.39245 | 139.90184 | 35156 ft | 480 kts | 10° |